sensor_id;sensor_type;location;lat;lon;timestamp;pressure;altitude;pressure_sealevel;temperature;humidity
78206;BME280;67480;48.920;12.880;2024-02-26T00:02:16;95418.13;;;5.44;66.92
78206;BME280;67480;48.920;12.880;2024-02-26T00:04:42;95413.72;;;5.44;67.52
78206;BME280;67480;48.920;12.880;2024-02-26T00:07:08;95406.72;;;5.45;67.35
78206;BME280;67480;48.920;12.880;2024-02-26T00:09:33;95405.13;;;5.44;67.33
78206;BME280;67480;48.920;12.880;2024-02-26T00:12:01;95397.34;;;5.44;67.05
78206;BME280;67480;48.920;12.880;2024-02-26T00:14:29;95386.38;;;5.42;67.55
78206;BME280;67480;48.920;12.880;2024-02-26T00:16:54;95385.38;;;5.43;66.99
78206;BME280;67480;48.920;12.880;2024-02-26T00:19:19;95379.38;;;5.42;67.01
78206;BME280;67480;48.920;12.880;2024-02-26T00:21:45;95377.47;;;5.38;67.62
78206;BME280;67480;48.920;12.880;2024-02-26T00:24:10;95377.47;;;5.38;67.52
78206;BME280;67480;48.920;12.880;2024-02-26T00:26:35;95377.47;;;5.38;67.23
78206;BME280;67480;48.920;12.880;2024-02-26T00:29:01;95374.63;;;5.39;67.29
78206;BME280;67480;48.920;12.880;2024-02-26T00:31:26;95378.03;;;5.40;67.29
78206;BME280;67480;48.920;12.880;2024-02-26T00:33:52;95380.63;;;5.40;67.03
78206;BME280;67480;48.920;12.880;2024-02-26T00:36:17;95372.25;;;5.38;67.22
78206;BME280;67480;48.920;12.880;2024-02-26T00:38:44;95369.22;;;5.41;66.87
78206;BME280;67480;48.920;12.880;2024-02-26T00:41:11;95375.44;;;5.40;66.93
78206;BME280;67480;48.920;12.880;2024-02-26T00:43:36;95365.59;;;5.42;66.92
78206;BME280;67480;48.920;12.880;2024-02-26T00:46:04;95374.16;;;5.42;67.02
78206;BME280;67480;48.920;12.880;2024-02-26T00:48:30;95363.22;;;5.40;66.69
78206;BME280;67480;48.920;12.880;2024-02-26T00:50:55;95352.25;;;5.38;67.00
78206;BME280;67480;48.920;12.880;2024-02-26T00:53:20;95356.34;;;5.34;66.21
78206;BME280;67480;48.920;12.880;2024-02-26T00:55:46;95356.56;;;5.33;66.63
78206;BME280;67480;48.920;12.880;2024-02-26T00:58:11;95351.16;;;5.34;66.91
78206;BME280;67480;48.920;12.880;2024-02-26T01:00:36;95359.47;;;5.36;66.33
78206;BME280;67480;48.920;12.880;2024-02-26T01:03:02;95363.31;;;5.34;66.75
78206;BME280;67480;48.920;12.880;2024-02-26T01:05:29;95354.41;;;5.30;66.95
78206;BME280;67480;48.920;12.880;2024-02-26T01:07:55;95358.03;;;5.29;66.50
78206;BME280;67480;48.920;12.880;2024-02-26T01:10:20;95367.38;;;5.30;66.70
78206;BME280;67480;48.920;12.880;2024-02-26T01:12:45;95362.78;;;5.32;66.16
78206;BME280;67480;48.920;12.880;2024-02-26T01:15:11;95363.78;;;5.31;66.03
78206;BME280;67480;48.920;12.880;2024-02-26T01:17:36;95364.56;;;5.31;66.32
78206;BME280;67480;48.920;12.880;2024-02-26T01:20:02;95370.78;;;5.30;67.05
78206;BME280;67480;48.920;12.880;2024-02-26T01:22:27;95366.81;;;5.28;66.25
78206;BME280;67480;48.920;12.880;2024-02-26T01:24:52;95363.63;;;5.26;66.41
78206;BME280;67480;48.920;12.880;2024-02-26T01:27:18;95363.88;;;5.24;65.48
78206;BME280;67480;48.920;12.880;2024-02-26T01:29:43;95362.31;;;5.23;65.73
78206;BME280;67480;48.920;12.880;2024-02-26T01:32:09;95366.16;;;5.20;65.47
78206;BME280;67480;48.920;12.880;2024-02-26T01:34:34;95368.16;;;5.18;65.17
78206;BME280;67480;48.920;12.880;2024-02-26T01:37:02;95353.81;;;5.16;65.47
78206;BME280;67480;48.920;12.880;2024-02-26T01:39:27;95354.25;;;5.13;65.82
78206;BME280;67480;48.920;12.880;2024-02-26T01:41:54;95357.78;;;5.18;64.79
78206;BME280;67480;48.920;12.880;2024-02-26T01:44:19;95346.81;;;5.16;64.38
78206;BME280;67480;48.920;12.880;2024-02-26T01:46:45;95354.59;;;5.16;64.29
78206;BME280;67480;48.920;12.880;2024-02-26T01:49:12;95351.00;;;5.17;64.74
78206;BME280;67480;48.920;12.880;2024-02-26T01:51:39;95349.97;;;5.18;64.68
78206;BME280;67480;48.920;12.880;2024-02-26T01:54:05;95349.53;;;5.21;64.83
78206;BME280;67480;48.920;12.880;2024-02-26T01:56:33;95346.94;;;5.21;64.75
78206;BME280;67480;48.920;12.880;2024-02-26T01:59:00;95346.16;;;5.21;64.69
78206;BME280;67480;48.920;12.880;2024-02-26T02:01:27;95353.16;;;5.20;64.87
78206;BME280;67480;48.920;12.880;2024-02-26T02:03:56;95355.75;;;5.20;64.10
78206;BME280;67480;48.920;12.880;2024-02-26T02:06:26;95356.53;;;5.21;64.15
78206;BME280;67480;48.920;12.880;2024-02-26T02:08:54;95366.16;;;5.20;63.98
78206;BME280;67480;48.920;12.880;2024-02-26T02:11:19;95366.59;;;5.17;65.13
78206;BME280;67480;48.920;12.880;2024-02-26T02:13:44;95369.59;;;5.14;64.56
78206;BME280;67480;48.920;12.880;2024-02-26T02:16:10;95366.22;;;5.14;64.91
78206;BME280;67480;48.920;12.880;2024-02-26T02:18:35;95369.59;;;5.14;64.69
78206;BME280;67480;48.920;12.880;2024-02-26T02:21:01;95365.88;;;5.10;65.14
78206;BME280;67480;48.920;12.880;2024-02-26T02:23:27;95372.31;;;5.08;65.34
78206;BME280;67480;48.920;12.880;2024-02-26T02:25:52;95376.38;;;5.04;65.52
78206;BME280;67480;48.920;12.880;2024-02-26T02:28:19;95368.81;;;5.02;65.64
78206;BME280;67480;48.920;12.880;2024-02-26T02:30:44;95351.66;;;5.01;65.12
78206;BME280;67480;48.920;12.880;2024-02-26T02:33:10;95361.25;;;5.01;65.11
78206;BME280;67480;48.920;12.880;2024-02-26T02:35:37;95353.66;;;4.99;64.45
78206;BME280;67480;48.920;12.880;2024-02-26T02:38:03;95356.25;;;4.99;65.02
78206;BME280;67480;48.920;12.880;2024-02-26T02:40:28;95347.44;;;5.00;64.49
78206;BME280;67480;48.920;12.880;2024-02-26T02:42:54;95351.66;;;5.01;64.21
78206;BME280;67480;48.920;12.880;2024-02-26T02:45:19;95348.47;;;4.99;63.77
78206;BME280;67480;48.920;12.880;2024-02-26T02:47:44;95352.09;;;4.98;64.21
78206;BME280;67480;48.920;12.880;2024-02-26T02:50:09;95338.31;;;4.97;64.44
78206;BME280;67480;48.920;12.880;2024-02-26T02:52:35;95337.31;;;4.98;64.53
78206;BME280;67480;48.920;12.880;2024-02-26T02:55:01;95334.91;;;4.97;65.27
78206;BME280;67480;48.920;12.880;2024-02-26T02:57:26;95336.97;;;4.95;63.97
78206;BME280;67480;48.920;12.880;2024-02-26T02:59:51;95329.72;;;4.97;64.40
78206;BME280;67480;48.920;12.880;2024-02-26T03:02:17;95335.38;;;4.94;64.67
78206;BME280;67480;48.920;12.880;2024-02-26T03:04:42;95332.31;;;4.97;63.87
78206;BME280;67480;48.920;12.880;2024-02-26T03:07:07;95327.72;;;4.99;63.86
78206;BME280;67480;48.920;12.880;2024-02-26T03:09:33;95321.50;;;5.00;63.62
78206;BME280;67480;48.920;12.880;2024-02-26T03:11:58;95315.50;;;4.99;62.92
78206;BME280;67480;48.920;12.880;2024-02-26T03:14:23;95316.09;;;5.02;63.44
78206;BME280;67480;48.920;12.880;2024-02-26T03:16:49;95311.91;;;5.01;63.51
78206;BME280;67480;48.920;12.880;2024-02-26T03:19:15;95312.13;;;4.99;63.48
78206;BME280;67480;48.920;12.880;2024-02-26T03:21:41;95319.34;;;4.97;63.26
78206;BME280;67480;48.920;12.880;2024-02-26T03:24:07;95309.75;;;4.97;63.14
78206;BME280;67480;48.920;12.880;2024-02-26T03:26:35;95317.31;;;4.99;63.19
78206;BME280;67480;48.920;12.880;2024-02-26T03:29:01;95310.91;;;5.02;62.73
78206;BME280;67480;48.920;12.880;2024-02-26T03:31:27;95308.75;;;4.98;62.39
78206;BME280;67480;48.920;12.880;2024-02-26T03:33:53;95314.72;;;4.99;61.98
78206;BME280;67480;48.920;12.880;2024-02-26T03:36:18;95308.97;;;4.97;62.06
78206;BME280;67480;48.920;12.880;2024-02-26T03:38:43;95308.97;;;4.97;62.79
78206;BME280;67480;48.920;12.880;2024-02-26T03:41:09;95309.53;;;4.99;62.80
78206;BME280;67480;48.920;12.880;2024-02-26T03:43:34;95306.50;;;5.02;62.77
78206;BME280;67480;48.920;12.880;2024-02-26T03:46:00;95304.91;;;5.01;62.83
78206;BME280;67480;48.920;12.880;2024-02-26T03:48:25;95303.56;;;4.98;62.76
78206;BME280;67480;48.920;12.880;2024-02-26T03:50:51;95305.38;;;4.98;62.98
78206;BME280;67480;48.920;12.880;2024-02-26T03:53:16;95313.69;;;5.00;62.72
78206;BME280;67480;48.920;12.880;2024-02-26T03:55:41;95317.91;;;5.01;62.57
78206;BME280;67480;48.920;12.880;2024-02-26T03:58:07;95311.09;;;5.00;62.63
78206;BME280;67480;48.920;12.880;2024-02-26T04:00:33;95317.13;;;5.01;63.15
78206;BME280;67480;48.920;12.880;2024-02-26T04:02:59;95315.31;;;5.01;62.19
78206;BME280;67480;48.920;12.880;2024-02-26T04:05:24;95324.09;;;5.00;63.03
78206;BME280;67480;48.920;12.880;2024-02-26T04:07:49;95329.28;;;5.00;62.96
78206;BME280;67480;48.920;12.880;2024-02-26T04:10:15;95332.13;;;4.98;63.59
78206;BME280;67480;48.920;12.880;2024-02-26T04:12:41;95340.69;;;4.99;63.60
78206;BME280;67480;48.920;12.880;2024-02-26T04:15:10;95336.72;;;4.96;63.64
78206;BME280;67480;48.920;12.880;2024-02-26T04:17:36;95344.19;;;4.93;64.28
78206;BME280;67480;48.920;12.880;2024-02-26T04:20:03;95344.63;;;4.90;64.00
78206;BME280;67480;48.920;12.880;2024-02-26T04:22:28;95353.84;;;4.86;64.21
78206;BME280;67480;48.920;12.880;2024-02-26T04:24:54;95350.72;;;4.84;63.93
78206;BME280;67480;48.920;12.880;2024-02-26T04:27:19;95350.34;;;4.80;64.25
78206;BME280;67480;48.920;12.880;2024-02-26T04:29:44;95350.00;;;4.76;64.95
78206;BME280;67480;48.920;12.880;2024-02-26T04:32:10;95352.00;;;4.74;64.47
78206;BME280;67480;48.920;12.880;2024-02-26T04:34:35;95342.06;;;4.71;64.79
78206;BME280;67480;48.920;12.880;2024-02-26T04:37:01;95341.72;;;4.68;65.23
78206;BME280;67480;48.920;12.880;2024-02-26T04:39:26;95339.34;;;4.66;64.77
78206;BME280;67480;48.920;12.880;2024-02-26T04:41:51;95342.19;;;4.65;64.40
78206;BME280;67480;48.920;12.880;2024-02-26T04:44:17;95337.63;;;4.60;64.17
78206;BME280;67480;48.920;12.880;2024-02-26T04:46:42;95329.50;;;4.57;64.52
78206;BME280;67480;48.920;12.880;2024-02-26T04:49:07;95333.19;;;4.49;64.66
78206;BME280;67480;48.920;12.880;2024-02-26T04:51:33;95322.03;;;4.48;64.71
78206;BME280;67480;48.920;12.880;2024-02-26T04:53:58;95314.81;;;4.50;64.93
78206;BME280;67480;48.920;12.880;2024-02-26T04:56:24;95313.16;;;4.56;64.30
78206;BME280;67480;48.920;12.880;2024-02-26T04:58:50;95305.91;;;4.58;63.82
78206;BME280;67480;48.920;12.880;2024-02-26T05:01:16;95302.91;;;4.61;63.84
78206;BME280;67480;48.920;12.880;2024-02-26T05:03:42;95308.66;;;4.63;64.49
78206;BME280;67480;48.920;12.880;2024-02-26T05:06:08;95321.41;;;4.65;63.81
78206;BME280;67480;48.920;12.880;2024-02-26T05:08:34;95317.59;;;4.67;63.42
78206;BME280;67480;48.920;12.880;2024-02-26T05:11:01;95322.53;;;4.69;63.52
78206;BME280;67480;48.920;12.880;2024-02-26T05:13:28;95321.75;;;4.68;64.19
78206;BME280;67480;48.920;12.880;2024-02-26T05:15:53;95323.56;;;4.68;64.04
78206;BME280;67480;48.920;12.880;2024-02-26T05:18:22;95327.97;;;4.67;63.81
78206;BME280;67480;48.920;12.880;2024-02-26T05:20:47;95334.16;;;4.66;64.16
78206;BME280;67480;48.920;12.880;2024-02-26T05:23:13;95334.16;;;4.66;63.83
78206;BME280;67480;48.920;12.880;2024-02-26T05:25:38;95333.38;;;4.66;64.53
78206;BME280;67480;48.920;12.880;2024-02-26T05:28:04;95331.00;;;4.64;64.22
78206;BME280;67480;48.920;12.880;2024-02-26T05:30:29;95325.38;;;4.67;63.91
78206;BME280;67480;48.920;12.880;2024-02-26T05:32:54;95324.81;;;4.65;63.92
78206;BME280;67480;48.920;12.880;2024-02-26T05:35:20;95318.59;;;4.66;63.65
78206;BME280;67480;48.920;12.880;2024-02-26T05:37:45;95332.13;;;4.68;63.80
78206;BME280;67480;48.920;12.880;2024-02-26T05:40:11;95340.38;;;4.65;63.93
78206;BME280;67480;48.920;12.880;2024-02-26T05:42:37;95343.97;;;4.64;64.71
78206;BME280;67480;48.920;12.880;2024-02-26T05:45:02;95348.00;;;4.60;64.54
78206;BME280;67480;48.920;12.880;2024-02-26T05:47:32;95353.88;;;4.56;64.43
78206;BME280;67480;48.920;12.880;2024-02-26T05:49:58;95354.53;;;4.51;64.75
78206;BME280;67480;48.920;12.880;2024-02-26T05:52:24;95356.78;;;4.47;64.78
78206;BME280;67480;48.920;12.880;2024-02-26T05:54:50;95356.19;;;4.45;64.80
78206;BME280;67480;48.920;12.880;2024-02-26T05:57:15;95365.19;;;4.43;64.61
78206;BME280;67480;48.920;12.880;2024-02-26T05:59:40;95369.59;;;4.42;65.26
78206;BME280;67480;48.920;12.880;2024-02-26T06:02:06;95365.63;;;4.40;65.24
78206;BME280;67480;48.920;12.880;2024-02-26T06:04:31;95370.25;;;4.38;65.04
78206;BME280;67480;48.920;12.880;2024-02-26T06:06:56;95373.28;;;4.35;64.76
78206;BME280;67480;48.920;12.880;2024-02-26T06:09:22;95361.78;;;4.30;65.06
78206;BME280;67480;48.920;12.880;2024-02-26T06:11:48;95359.03;;;4.25;64.61
78206;BME280;67480;48.920;12.880;2024-02-26T06:14:13;95358.44;;;4.23;64.50
78206;BME280;67480;48.920;12.880;2024-02-26T06:16:43;95363.44;;;4.25;65.19
78206;BME280;67480;48.920;12.880;2024-02-26T06:19:08;95353.06;;;4.25;64.82
78206;BME280;67480;48.920;12.880;2024-02-26T06:21:34;95357.22;;;4.26;64.83
78206;BME280;67480;48.920;12.880;2024-02-26T06:24:01;95352.63;;;4.28;65.20
78206;BME280;67480;48.920;12.880;2024-02-26T06:26:26;95358.16;;;4.31;65.17
78206;BME280;67480;48.920;12.880;2024-02-26T06:28:54;95354.00;;;4.30;65.15
78206;BME280;67480;48.920;12.880;2024-02-26T06:31:20;95354.19;;;4.29;65.38
78206;BME280;67480;48.920;12.880;2024-02-26T06:33:47;95351.41;;;4.30;64.61
78206;BME280;67480;48.920;12.880;2024-02-26T06:36:12;95347.00;;;4.31;64.96
78206;BME280;67480;48.920;12.880;2024-02-26T06:38:38;95350.16;;;4.33;64.96
78206;BME280;67480;48.920;12.880;2024-02-26T06:41:03;95351.50;;;4.36;64.93
78206;BME280;67480;48.920;12.880;2024-02-26T06:43:29;95364.47;;;4.36;64.68
78206;BME280;67480;48.920;12.880;2024-02-26T06:45:54;95357.28;;;4.38;63.90
78206;BME280;67480;48.920;12.880;2024-02-26T06:48:19;95360.91;;;4.37;63.66
78206;BME280;67480;48.920;12.880;2024-02-26T06:50:45;95367.66;;;4.38;64.53
78206;BME280;67480;48.920;12.880;2024-02-26T06:53:10;95365.19;;;4.43;63.89
78206;BME280;67480;48.920;12.880;2024-02-26T06:55:35;95366.34;;;4.47;63.42
78206;BME280;67480;48.920;12.880;2024-02-26T06:58:02;95364.91;;;4.51;63.45
78206;BME280;67480;48.920;12.880;2024-02-26T07:00:28;95376.31;;;4.50;63.75
78206;BME280;67480;48.920;12.880;2024-02-26T07:02:53;95377.44;;;4.54;63.67
78206;BME280;67480;48.920;12.880;2024-02-26T07:05:18;95388.59;;;4.54;63.93
78206;BME280;67480;48.920;12.880;2024-02-26T07:07:44;95405.38;;;4.52;64.33
78206;BME280;67480;48.920;12.880;2024-02-26T07:10:10;95404.59;;;4.51;65.04
78206;BME280;67480;48.920;12.880;2024-02-26T07:12:37;95400.63;;;4.49;65.15
78206;BME280;67480;48.920;12.880;2024-02-26T07:15:04;95406.28;;;4.46;65.02
78206;BME280;67480;48.920;12.880;2024-02-26T07:17:30;95406.28;;;4.46;65.43
78206;BME280;67480;48.920;12.880;2024-02-26T07:19:55;95411.69;;;4.44;65.41
78206;BME280;67480;48.920;12.880;2024-02-26T07:22:21;95414.69;;;4.41;65.30
78206;BME280;67480;48.920;12.880;2024-02-26T07:24:46;95412.69;;;4.43;65.09
78206;BME280;67480;48.920;12.880;2024-02-26T07:27:12;95419.09;;;4.41;65.45
78206;BME280;67480;48.920;12.880;2024-02-26T07:29:37;95408.16;;;4.39;65.41
78206;BME280;67480;48.920;12.880;2024-02-26T07:32:02;95420.69;;;4.42;65.35
78206;BME280;67480;48.920;12.880;2024-02-26T07:34:28;95424.06;;;4.42;65.10
78206;BME280;67480;48.920;12.880;2024-02-26T07:36:55;95421.03;;;4.45;65.62
78206;BME280;67480;48.920;12.880;2024-02-26T07:39:21;95433.78;;;4.47;65.60
78206;BME280;67480;48.920;12.880;2024-02-26T07:41:46;95428.59;;;4.47;65.78
78206;BME280;67480;48.920;12.880;2024-02-26T07:44:15;95429.19;;;4.49;65.63
78206;BME280;67480;48.920;12.880;2024-02-26T07:46:40;95430.19;;;4.48;65.69
78206;BME280;67480;48.920;12.880;2024-02-26T07:49:06;95423.78;;;4.50;65.92
78206;BME280;67480;48.920;12.880;2024-02-26T07:51:31;95444.31;;;4.52;66.18
78206;BME280;67480;48.920;12.880;2024-02-26T07:53:56;95437.69;;;4.56;66.22
78206;BME280;67480;48.920;12.880;2024-02-26T07:56:22;95444.44;;;4.57;65.97
78206;BME280;67480;48.920;12.880;2024-02-26T07:58:47;95450.44;;;4.58;65.91
78206;BME280;67480;48.920;12.880;2024-02-26T08:01:13;95451.22;;;4.58;66.33
78206;BME280;67480;48.920;12.880;2024-02-26T08:03:41;95458.00;;;4.59;66.11
78206;BME280;67480;48.920;12.880;2024-02-26T08:06:08;95458.78;;;4.60;66.79
78206;BME280;67480;48.920;12.880;2024-02-26T08:08:33;95448.41;;;4.60;66.67
78206;BME280;67480;48.920;12.880;2024-02-26T08:10:58;95449.44;;;4.59;66.31
78206;BME280;67480;48.920;12.880;2024-02-26T08:13:24;95453.41;;;4.61;66.91
78206;BME280;67480;48.920;12.880;2024-02-26T08:15:49;95446.97;;;4.64;66.71
78206;BME280;67480;48.920;12.880;2024-02-26T08:18:15;95452.72;;;4.66;66.78
78206;BME280;67480;48.920;12.880;2024-02-26T08:20:41;95453.50;;;4.66;66.51
78206;BME280;67480;48.920;12.880;2024-02-26T08:23:06;95452.53;;;4.67;66.43
78206;BME280;67480;48.920;12.880;2024-02-26T08:25:32;95451.50;;;4.68;66.62
78206;BME280;67480;48.920;12.880;2024-02-26T08:27:57;95454.69;;;4.70;66.42
78206;BME280;67480;48.920;12.880;2024-02-26T08:30:23;95447.69;;;4.71;66.24
78206;BME280;67480;48.920;12.880;2024-02-26T08:32:48;95450.28;;;4.71;66.90
78206;BME280;67480;48.920;12.880;2024-02-26T08:35:14;95451.06;;;4.71;66.63
78206;BME280;67480;48.920;12.880;2024-02-26T08:37:39;95449.63;;;4.75;66.79
78206;BME280;67480;48.920;12.880;2024-02-26T08:40:06;95452.22;;;4.75;66.96
78206;BME280;67480;48.920;12.880;2024-02-26T08:42:32;95454.38;;;4.79;66.92
78206;BME280;67480;48.920;12.880;2024-02-26T08:44:57;95455.38;;;4.77;66.83
78206;BME280;67480;48.920;12.880;2024-02-26T08:47:25;95463.31;;;4.83;66.89
78206;BME280;67480;48.920;12.880;2024-02-26T08:49:51;95462.09;;;4.85;67.10
78206;BME280;67480;48.920;12.880;2024-02-26T08:52:16;95461.63;;;4.88;67.11
78206;BME280;67480;48.920;12.880;2024-02-26T08:54:41;95462.44;;;4.89;67.15
78206;BME280;67480;48.920;12.880;2024-02-26T08:57:07;95455.22;;;4.91;67.13
78206;BME280;67480;48.920;12.880;2024-02-26T08:59:32;95468.78;;;4.93;67.00
78206;BME280;67480;48.920;12.880;2024-02-26T09:01:58;95459.53;;;4.97;66.88
78206;BME280;67480;48.920;12.880;2024-02-26T09:04:23;95452.31;;;4.99;67.62
78206;BME280;67480;48.920;12.880;2024-02-26T09:06:48;95451.31;;;5.00;67.67
78206;BME280;67480;48.920;12.880;2024-02-26T09:09:14;95459.09;;;5.00;67.18
78206;BME280;67480;48.920;12.880;2024-02-26T09:11:39;95467.47;;;5.02;67.38
78206;BME280;67480;48.920;12.880;2024-02-26T09:14:05;95469.63;;;5.05;67.51
78206;BME280;67480;48.920;12.880;2024-02-26T09:16:30;95463.84;;;5.03;67.26
78206;BME280;67480;48.920;12.880;2024-02-26T09:18:56;95459.81;;;5.07;67.41
78206;BME280;67480;48.920;12.880;2024-02-26T09:21:22;95462.41;;;5.07;67.38
78206;BME280;67480;48.920;12.880;2024-02-26T09:23:52;95464.56;;;5.10;67.55
78206;BME280;67480;48.920;12.880;2024-02-26T09:26:18;95467.50;;;5.14;67.10
78206;BME280;67480;48.920;12.880;2024-02-26T09:28:44;95473.06;;;5.17;67.44
78206;BME280;67480;48.920;12.880;2024-02-26T09:31:09;95473.16;;;5.22;67.29
78206;BME280;67480;48.920;12.880;2024-02-26T09:33:35;95474.34;;;5.27;66.84
78206;BME280;67480;48.920;12.880;2024-02-26T09:36:00;95478.63;;;5.33;66.64
78206;BME280;67480;48.920;12.880;2024-02-26T09:38:27;95481.38;;;5.38;66.20
78206;BME280;67480;48.920;12.880;2024-02-26T09:40:53;95490.28;;;5.42;66.22
78206;BME280;67480;48.920;12.880;2024-02-26T09:43:21;95494.06;;;5.46;66.16
78206;BME280;67480;48.920;12.880;2024-02-26T09:45:52;95505.56;;;5.50;66.30
78206;BME280;67480;48.920;12.880;2024-02-26T09:48:18;95508.75;;;5.52;65.77
78206;BME280;67480;48.920;12.880;2024-02-26T09:50:43;95499.94;;;5.53;65.83
78206;BME280;67480;48.920;12.880;2024-02-26T09:53:10;95491.69;;;5.56;65.73
78206;BME280;67480;48.920;12.880;2024-02-26T09:55:36;95486.28;;;5.58;65.80
78206;BME280;67480;48.920;12.880;2024-02-26T09:58:04;95490.25;;;5.60;65.73
78206;BME280;67480;48.920;12.880;2024-02-26T10:00:31;95490.81;;;5.62;65.65
78206;BME280;67480;48.920;12.880;2024-02-26T10:03:03;95484.16;;;5.66;65.89
78206;BME280;67480;48.920;12.880;2024-02-26T10:05:30;95494.34;;;5.68;65.95
78206;BME280;67480;48.920;12.880;2024-02-26T10:07:57;95500.22;;;5.75;65.59
78206;BME280;67480;48.920;12.880;2024-02-26T10:10:23;95499.31;;;5.81;65.30
78206;BME280;67480;48.920;12.880;2024-02-26T10:12:49;95496.16;;;5.91;65.56
78206;BME280;67480;48.920;12.880;2024-02-26T10:15:15;95498.88;;;5.96;65.39
78206;BME280;67480;48.920;12.880;2024-02-26T10:17:41;95491.56;;;6.05;65.25
78206;BME280;67480;48.920;12.880;2024-02-26T10:20:17;95491.88;;;6.08;65.39
78206;BME280;67480;48.920;12.880;2024-02-26T10:22:43;95489.41;;;6.14;65.27
78206;BME280;67480;48.920;12.880;2024-02-26T10:25:09;95499.22;;;6.23;64.97
78206;BME280;67480;48.920;12.880;2024-02-26T10:27:35;95499.91;;;6.30;64.24
78206;BME280;67480;48.920;12.880;2024-02-26T10:30:04;95501.03;;;6.34;64.30
78206;BME280;67480;48.920;12.880;2024-02-26T10:32:40;95507.28;;;6.33;64.73
78206;BME280;67480;48.920;12.880;2024-02-26T10:35:08;95513.38;;;6.39;64.47
78206;BME280;67480;48.920;12.880;2024-02-26T10:37:33;95506.94;;;6.42;64.45
78206;BME280;67480;48.920;12.880;2024-02-26T10:39:59;95508.41;;;6.49;63.94
78206;BME280;67480;48.920;12.880;2024-02-26T10:42:26;95500.38;;;6.51;64.41
78206;BME280;67480;48.920;12.880;2024-02-26T10:44:51;95499.72;;;6.55;64.29
78206;BME280;67480;48.920;12.880;2024-02-26T10:47:16;95507.06;;;6.59;64.27
78206;BME280;67480;48.920;12.880;2024-02-26T10:49:46;95500.16;;;6.64;63.88
78206;BME280;67480;48.920;12.880;2024-02-26T10:52:13;95508.75;;;6.65;64.45
78206;BME280;67480;48.920;12.880;2024-02-26T10:54:41;95511.00;;;6.73;63.93
78206;BME280;67480;48.920;12.880;2024-02-26T10:57:08;95503.84;;;6.80;63.90
78206;BME280;67480;48.920;12.880;2024-02-26T10:59:35;95510.97;;;6.85;64.06
78206;BME280;67480;48.920;12.880;2024-02-26T11:02:00;95506.34;;;6.87;64.00
78206;BME280;67480;48.920;12.880;2024-02-26T11:04:26;95496.34;;;6.95;64.10
78206;BME280;67480;48.920;12.880;2024-02-26T11:06:54;95506.50;;;6.97;63.98
78206;BME280;67480;48.920;12.880;2024-02-26T11:09:22;95500.16;;;7.05;64.42
78206;BME280;67480;48.920;12.880;2024-02-26T11:11:48;95489.84;;;7.10;64.79
78206;BME280;67480;48.920;12.880;2024-02-26T11:14:15;95483.31;;;7.24;64.14
78206;BME280;67480;48.920;12.880;2024-02-26T11:16:42;95480.72;;;7.24;64.29
78206;BME280;67480;48.920;12.880;2024-02-26T11:19:08;95479.78;;;7.30;63.55
78206;BME280;67480;48.920;12.880;2024-02-26T11:21:36;95471.66;;;7.27;63.90
78206;BME280;67480;48.920;12.880;2024-02-26T11:24:07;95474.19;;;7.38;63.46
78206;BME280;67480;48.920;12.880;2024-02-26T11:26:37;95477.53;;;7.51;63.78
78206;BME280;67480;48.920;12.880;2024-02-26T11:29:05;95478.00;;;7.47;63.95
78206;BME280;67480;48.920;12.880;2024-02-26T11:31:32;95474.59;;;7.47;63.71
78206;BME280;67480;48.920;12.880;2024-02-26T11:33:58;95481.63;;;7.46;63.44
78206;BME280;67480;48.920;12.880;2024-02-26T11:36:24;95484.81;;;7.49;63.74
78206;BME280;67480;48.920;12.880;2024-02-26T11:38:49;95475.84;;;7.44;63.50
78206;BME280;67480;48.920;12.880;2024-02-26T11:41:17;95480.69;;;7.53;64.01
78206;BME280;67480;48.920;12.880;2024-02-26T11:46:38;95466.47;;;7.43;63.76
78206;BME280;67480;48.920;12.880;2024-02-26T11:51:52;95457.53;;;7.39;64.28
78206;BME280;67480;48.920;12.880;2024-02-26T11:57:04;95461.16;;;7.38;64.80
78206;BME280;67480;48.920;12.880;2024-02-26T11:59:39;95453.13;;;7.40;64.21
78206;BME280;67480;48.920;12.880;2024-02-26T12:02:07;95454.00;;;7.45;64.44
78206;BME280;67480;48.920;12.880;2024-02-26T12:04:32;95452.41;;;7.44;64.62
78206;BME280;67480;48.920;12.880;2024-02-26T12:07:03;95454.53;;;7.47;64.53
78206;BME280;67480;48.920;12.880;2024-02-26T12:09:38;95457.69;;;7.50;64.87
78206;BME280;67480;48.920;12.880;2024-02-26T12:12:08;95458.25;;;7.52;64.58
78206;BME280;67480;48.920;12.880;2024-02-26T12:14:41;95465.38;;;7.56;64.84
78206;BME280;67480;48.920;12.880;2024-02-26T12:17:22;95458.00;;;7.53;64.85
78206;BME280;67480;48.920;12.880;2024-02-26T12:19:48;95463.47;;;7.52;65.01
78206;BME280;67480;48.920;12.880;2024-02-26T12:22:14;95471.53;;;7.50;65.53
78206;BME280;67480;48.920;12.880;2024-02-26T12:24:40;95471.84;;;7.54;65.64
78206;BME280;67480;48.920;12.880;2024-02-26T12:27:05;95478.47;;;7.44;65.71
78206;BME280;67480;48.920;12.880;2024-02-26T12:29:31;95471.44;;;7.45;65.88
78206;BME280;67480;48.920;12.880;2024-02-26T12:31:57;95473.25;;;7.44;65.92
78206;BME280;67480;48.920;12.880;2024-02-26T12:34:22;95478.94;;;7.41;66.24
78206;BME280;67480;48.920;12.880;2024-02-26T12:36:48;95478.47;;;7.44;66.00
78206;BME280;67480;48.920;12.880;2024-02-26T12:39:14;95484.25;;;7.46;65.79
78206;BME280;67480;48.920;12.880;2024-02-26T12:41:40;95481.44;;;7.36;66.02
78206;BME280;67480;48.920;12.880;2024-02-26T12:44:05;95479.31;;;7.33;66.50
78206;BME280;67480;48.920;12.880;2024-02-26T12:46:33;95492.81;;;7.30;66.47
78206;BME280;67480;48.920;12.880;2024-02-26T12:48:58;95488.84;;;7.28;66.31
78206;BME280;67480;48.920;12.880;2024-02-26T12:51:25;95506.31;;;7.27;66.74
78206;BME280;67480;48.920;12.880;2024-02-26T12:53:51;95506.78;;;7.24;66.31
78206;BME280;67480;48.920;12.880;2024-02-26T12:56:18;95501.31;;;7.26;66.13
78206;BME280;67480;48.920;12.880;2024-02-26T12:58:44;95496.09;;;7.26;66.69
78206;BME280;67480;48.920;12.880;2024-02-26T13:01:14;95501.09;;;7.27;66.61
78206;BME280;67480;48.920;12.880;2024-02-26T13:03:42;95504.72;;;7.26;67.06